Tiempo atmosférico en la estación meteorológica de Aguilar de la Frontera, Córdoba (305 m.)

Fecha
DESCASC
Temp. máxima en grados centígrados (hora)
DESCASC
Temp. mínima en grados centígrados (hora)
DESCASC
Temp. media en grados centígrados
DESCASC
Racha de viento máxima en m/sg (hora)
DESCASC
Velocidad máxima media en intervalos de 10 minutos(hora)
DESCASC
Precipitaciones diarias en mm
DESCASC
Precipitaciones de 00:00 a 06:00 en mm
DESCASC
Precipitaciones de 06:00 a 12:00 en mm
DESCASC
Precipitaciones de 12:00 a 18:00 en mm
DESCASC
Precipitaciones de 18:00 a 24:00 en mm
DESCASC
17-08-2017 39.7 (18:40) 20.1 (06:00) 29.9 7.22 (23:20) 5 (23:10) 0 0 0 0 0
16-08-2017 38.6 (17:30) 19.3 (06:40) 28.9 4.44 (20:20) 3.61 (20:20) 0 0 0 0 0
15-08-2017 36.8 (18:10) 20.2 (00:00) 28.5 6.94 (00:10) 4.44 (00:40) 0 0 0 0 0
14-08-2017 34.2 (17:20) 19.3 (07:50) 26.8 10.83 (00:20) 7.22 (23:00) 0 0 0 0 0
13-08-2017 35 (15:20) 18.4 (00:00) 26.7 11.67 (23:40) 6.94 (22:20) 0 0 0 0 0
12-08-2017 34.5 (15:30) 19.5 (00:00) 27 8.89 (17:30) 5.56 (17:40) 0 0 0 0 0
11-08-2017 35.2 (19:00) 18.4 (00:00) 26.8 9.17 (00:10) 5.83 (23:40) 0 0 0 0 0
10-08-2017 34.6 (19:00) 15.4 (00:00) 25 8.61 (23:20) 5.56 (23:20) 0 0 0 0 0
09-08-2017 33.1 (16:50) 14.7 (00:00) 23.9 10.83 (15:10) 5.83 (18:00) 0 0 0 0 0
08-08-2017 35.1 (17:30) 18.1 (00:00) 26.6 7.78 (13:50) 4.44 (20:10) 0 0 0 0 0
07-08-2017 40.4 (17:50) 24.4 (00:00) 32.4 13.06 (07:50) 6.39 (04:40) 0 0 0 0 0
06-08-2017 41.1 (17:30) 21.6 (00:00) 31.3 7.78 (23:00) 4.17 (22:10) 0 0 0 0 0
05-08-2017 41.4 (16:00) 25.7 (00:00) 33.6 6.94 (09:00) 4.72 (09:00) 0 0 0 0 0
04-08-2017 42.2 (18:10) 20.9 (00:00) 31.6 5.83 (22:30) 2.78 (22:40) 0 0 0 0 0
03-08-2017 40.5 (18:30) 18.5 (00:00) 29.5 4.17 (04:10) 3.06 (03:00) 0 0 0 0 0
02-08-2017 38.2 (19:10) 16.5 (00:00) 27.4 5 (23:10) 3.33 (23:10) 0 0 0 0 0
01-08-2017 32.8 (19:10) 16.5 (00:00) 24.6 7.78 (11:40) 5.28 (11:40) 0 0 0 0 0
31-07-2017 36.4 (16:50) 18.5 (00:00) 27.5 8.89 (20:30) 5.83 (20:10) 0 0 0 0 0
30-07-2017 39.6 (17:00) 19.7 (00:00) 29.6 7.5 (22:30) 4.17 (20:40) 0 0 0 0 0
29-07-2017 40.1 (17:20) 19.5 (00:00) 29.8 4.44 (21:20) 3.06 (20:40) 0 0 0 0 0
28-07-2017 40.3 (16:50) 20.4 (00:00) 30.3 4.44 (23:10) 3.33 (02:10) 0 0 0 0 0
27-07-2017 38.9 (17:40) 21.8 (00:00) 30.4 7.78 (06:40) 5.83 (06:40) 0 0 0 0 0
26-07-2017 34.5 (18:50) 20.2 (00:00) 27.4 5.28 (06:10) 4.17 (05:50) 0 0 0 0 0
25-07-2017 38 (17:40) 18.5 (00:00) 28.3 8.89 (21:00) 6.11 (20:50) 0 0 0 0 0
24-07-2017 38.2 (18:00) 17.8 (00:00) 28 6.11 (22:40) 3.89 (22:40) 0 0 0 0 0
23-07-2017 37 (18:10) 16.5 (00:00) 26.8 7.22 (22:20) 5 (22:10) 0 0 0 0 0
22-07-2017 35 (17:40) 13.8 (00:00) 24.4 5.28 (23:10) 3.61 (18:50) 0 0 0 0 0
21-07-2017 30.7 (18:30) 15.3 (00:00) 23 10 (14:30) 6.11 (14:30) 0 0 0 0 0
20-07-2017 32.8 (17:00) 18.1 (00:00) 25.4 9.72 (19:40) 6.67 (19:50) 0 0 0 0 0
19-07-2017 34.2 (17:10) 21.3 (00:00) 27.8 9.44 (18:40) 6.67 (22:10) 0 0 0 0 0

Gráficas

Temp. máximas Temp. mínimas Temp. medias Precipitaciones Rachas de viento máximas Velocidades máximas media en intervalos de 10 minutos

Datos horarios

Fecha y hora oficial Temperatura (ºC) Velocidad del viento (km/h) Dirección del viento Racha (km/h) Dirección de racha Precipitación (mm) Presión (hPa) Tendencia (hPa) Humedad (%)
2017-08-17 23:00:00 29.2 17 Sudeste 23 Sudeste 0 -- -- 46
2017-08-17 22:00:00 31 14 Sudeste 22 Sur 0 -- -- 42
2017-08-17 21:00:00 34.2 14 Sur 21 Sur 0 -- -- 33
2017-08-17 20:00:00 37.7 9 Oeste 10 Noroeste 0 -- -- 21
2017-08-17 19:00:00 39.3 5 Oeste 7 Oeste 0 -- -- 20
2017-08-17 18:00:00 39.4 5 Sudoeste 8 Oeste 0 -- -- 20
2017-08-17 17:00:00 39.2 5 Noroeste 9 Oeste 0 -- -- 23
2017-08-17 16:00:00 38.7 7 Oeste 9 Sudoeste 0 -- -- 24
2017-08-17 15:00:00 37.9 8 Sudoeste 12 Sudoeste 0 -- -- 26
2017-08-17 14:00:00 36.7 9 Sudoeste 12 Sur 0 -- -- 25
2017-08-17 13:00:00 35.8 9 Sudoeste 12 Sudoeste 0 -- -- 21
2017-08-17 12:00:00 34.5 4 Noroeste 13 Sudeste 0 -- -- 22
2017-08-17 11:00:00 32.3 8 Sudeste 13 Sudeste 0 -- -- 25
2017-08-17 10:00:00 28.6 8 Este 15 Sudeste 0 -- -- 29
2017-08-17 09:00:00 25.9 2 Este 19 Sudeste 0 -- -- 33
2017-08-17 08:00:00 21.7 14 Sudeste 19 Sudeste 0 -- -- 37
2017-08-17 07:00:00 21.3 9 Sudeste 13 Sudeste 0 -- -- 38
2017-08-17 06:00:00 20.1 6 Sudeste 10 Este 0 -- -- 40
2017-08-17 05:00:00 22.2 4 Este 10 Este 0 -- -- 35
2017-08-17 04:00:00 22 6 Sudeste 10 Este 0 -- -- 35
2017-08-17 03:00:00 22.2 6 Este 11 Sudeste 0 -- -- 35
2017-08-17 02:00:00 22.8 10 Sudeste 12 Sudeste 0 -- -- 34
2017-08-17 01:00:00 24.6 5 Este 9 Noroeste 0 -- -- 32
2017-08-17 00:00:00 26.3 4 Sudeste 13 Oeste 0 -- -- 30
2017-08-16 23:00:00 26.3 2 Sudoeste 5 Sudoeste 0 -- -- 26
2017-08-16 22:00:00 29.7 0 Calma 12 Sudoeste 0 -- -- 22
2017-08-16 21:00:00 33.7 9 Sudoeste 16 Oeste 0 -- -- 18
2017-08-16 20:00:00 36.5 12 Oeste 14 Oeste 0 -- -- 18
2017-08-16 19:00:00 38 9 Oeste 10 Oeste 0 -- -- 17
2017-08-16 18:00:00 38.5 7 Oeste 10 Oeste 0 -- -- 16
2017-08-16 17:00:00 38.2 7 Oeste 11 Noroeste 0 -- -- 17
2017-08-16 16:00:00 37.8 10 Oeste 12 Oeste 0 -- -- 17
2017-08-16 15:00:00 37 6 Sudoeste 13 Oeste 0 -- -- 19
2017-08-16 14:00:00 35.2 6 Oeste 12 Sudoeste 0 -- -- 23
2017-08-16 13:00:00 33.5 8 Oeste 14 Oeste 0 -- -- 31
2017-08-16 12:00:00 31.2 6 Noroeste 10 Sudoeste 0 -- -- 36
2017-08-16 11:00:00 29.3 5 Noroeste 10 Oeste 0 -- -- 42
2017-08-16 10:00:00 27 4 Sudeste 10 Sudeste 0 -- -- 48
2017-08-16 09:00:00 24.1 9 Sudeste 13 Sudeste 0 -- -- 56
2017-08-16 08:00:00 19.4 0 Calma 10 Este 0 -- -- 65
2017-08-16 07:00:00 19.6 6 Sudeste 10 Sudeste 0 -- -- 64
2017-08-16 06:00:00 19.6 4 Sudeste 10 Este 0 -- -- 64
2017-08-16 05:00:00 19.9 4 Este 8 Sudeste 0 -- -- 63
2017-08-16 04:00:00 21.3 7 Sudeste 10 Sudeste 0 -- -- 60
2017-08-16 03:00:00 22.4 6 Sudeste 10 Este 0 -- -- 57
2017-08-16 02:00:00 24 4 Sur 5 Sur 0 -- -- 52
2017-08-16 01:00:00 26.1 2 Noroeste 13 Oeste 0 -- -- 47
2017-08-16 00:00:00 28 11 Sudoeste 18 Sudoeste 0 -- -- 42
2017-08-15 23:00:00 29.3 8 Sudoeste 18 Oeste 0 -- -- 46
2017-08-15 22:00:00 30.4 6 Sudoeste 15 Oeste 0 -- -- 44
2017-08-15 21:00:00 33.6 7 Sudoeste 17 Sudoeste 0 -- -- 31
2017-08-15 20:00:00 35.5 11 Sudoeste 15 Sudoeste 0 -- -- 30
2017-08-15 19:00:00 36.8 8 Oeste 13 Oeste 0 -- -- 30
2017-08-15 18:00:00 36.5 9 Oeste 13 Oeste 0 -- -- 30
2017-08-15 17:00:00 36.3 9 Oeste 14 Oeste 0 -- -- 31
2017-08-15 16:00:00 35.4 8 Oeste 14 Oeste 0 -- -- 34
2017-08-15 15:00:00 33.9 6 Oeste 13 Oeste 0 -- -- 36
2017-08-15 14:00:00 33.1 4 Noroeste 13 Noroeste 0 -- -- 38
2017-08-15 13:00:00 31.4 6 Noroeste 15 Noroeste 0 -- -- 44
2017-08-15 12:00:00 29.5 7 Oeste 13 Oeste 0 -- -- 51
2017-08-15 11:00:00 27.8 5 Norte 9 Noroeste 0 -- -- 58
2017-08-15 10:00:00 26 4 Noroeste 6 Noroeste 0 -- -- 65
2017-08-15 09:00:00 23 2 Norte 6 Este 0 -- -- 74
2017-08-15 08:00:00 20.2 0 Calma 8 Este 0 -- -- 81
2017-08-15 07:00:00 20.5 6 Sudeste 8 Sudeste 0 -- -- 82
2017-08-15 06:00:00 21.5 4 Nordeste 7 Sur 0 -- -- 80
2017-08-15 05:00:00 22.5 6 Sudeste 17 Sudeste 0 -- -- 75
2017-08-15 04:00:00 23 10 Sudeste 18 Sudeste 0 -- -- 73
2017-08-15 03:00:00 23.2 12 Sudeste 22 Sudeste 0 -- -- 71
2017-08-15 02:00:00 23.8 16 Sudeste 23 Sudeste 0 -- -- 67
2017-08-15 01:00:00 24.2 13 Sudeste 25 Sudeste 0 -- -- 63
2017-08-15 00:00:00 24.9 19 Sur 36 Sudeste 0 -- -- 62
2017-08-14 23:00:00 25.9 26 Sudeste 35 Sudeste 0 -- -- 60
2017-08-14 22:00:00 27.1 21 Sudeste 34 Sudeste 0 -- -- 53
2017-08-14 21:00:00 29.2 17 Sudeste 27 Sur 0 -- -- 46
2017-08-14 20:00:00 32.4 14 Sudeste 24 Sudeste 0 -- -- 36
2017-08-14 19:00:00 33.6 14 Sudeste 21 Sur 0 -- -- 33
2017-08-14 18:00:00 33.6 16 Sur 23 Sur 0 -- -- 32
2017-08-14 17:00:00 34.1 14 Sur 29 Sudoeste 0 -- -- 32
2017-08-14 16:00:00 33.6 14 Sudoeste 22 Sur 0 -- -- 34
2017-08-14 15:00:00 33 13 Sudoeste 27 Sudoeste 0 -- -- 35
2017-08-14 14:00:00 31.7 16 Sudoeste 25 Sudoeste 0 -- -- 38
2017-08-14 13:00:00 30.4 11 Sudoeste 22 Sudoeste 0 -- -- 44
2017-08-14 12:00:00 28.2 5 Noroeste 10 Norte 0 -- -- 50
2017-08-14 11:00:00 27 3 Norte 10 Noroeste 0 -- -- 55
2017-08-14 10:00:00 24.8 5 Noroeste 10 Oeste 0 -- -- 62
2017-08-14 09:00:00 23 0 Calma 5 Este 0 -- -- 69
2017-08-14 08:00:00 19.5 2 Este 6 Este 0 -- -- 79
2017-08-14 07:00:00 19.7 3 Sudoeste 9 Este 0 -- -- 80
2017-08-14 06:00:00 20.1 3 Norte 8 Este 0 -- -- 79
2017-08-14 05:00:00 20.8 5 Este 9 Sudeste 0 -- -- 79
2017-08-14 04:00:00 21.8 2 Este 13 Sur 0 -- -- 76
2017-08-14 03:00:00 22.2 7 Sur 21 Sudeste 0 -- -- 74
2017-08-14 02:00:00 22.3 12 Sur 36 Sudeste 0 -- -- 74
2017-08-14 01:00:00 22.8 22 Sudeste 39 Sudeste 0 -- -- 69
2017-08-14 00:00:00 23.4 23 Sudeste 42 Sur 0 -- -- 63
2017-08-13 23:00:00 24.2 22 Sudeste 39 Sur 0 -- -- 61
2017-08-13 22:00:00 25.7 21 Sudeste 34 Sur 0 -- -- 56
2017-08-13 21:00:00 27.9 17 Sur 29 Sur 0 -- -- 47
2017-08-13 20:00:00 30.8 18 Sur 26 Sur 0 -- -- 39
2017-08-13 19:00:00 33 15 Sur 21 Sur 0 -- -- 32
2017-08-13 18:00:00 33.8 15 Sur 24 Sudoeste 0 -- -- 31
2017-08-13 17:00:00 34.3 14 Sudoeste 20 Sur 0 -- -- 33
2017-08-13 16:00:00 34.8 14 Sudoeste 21 Sur 0 -- -- 31
2017-08-13 15:00:00 34.5 7 Oeste 16 Noroeste 0 -- -- 28
2017-08-13 14:00:00 33.4 7 Norte 16 Sudoeste 0 -- -- 29
2017-08-13 13:00:00 32 4 Sudeste 13 Nordeste 0 -- -- 34
2017-08-13 12:00:00 30.3 6 Este 17 Este 0 -- -- 39
2017-08-13 11:00:00 28.1 6 Este 16 Sudeste 0 -- -- 45
2017-08-13 10:00:00 26.5 5 Sudeste 12 Este 0 -- -- 49
2017-08-13 09:00:00 23 6 Sudeste 13 Este 0 -- -- 60
2017-08-13 08:00:00 18.8 3 Este 7 Este 0 -- -- 79
2017-08-13 07:00:00 18.4 6 Este 9 Nordeste 0 -- -- 80
2017-08-13 06:00:00 19.5 7 Sudeste 12 Sudeste 0 -- -- 76
2017-08-13 05:00:00 20.7 5 Sudeste 14 Sudeste 0 -- -- 73
2017-08-13 04:00:00 21.5 5 Sudeste 17 Sur 0 -- -- 70
2017-08-13 03:00:00 21.7 5 Sur 23 Sudeste 0 -- -- 66
2017-08-13 02:00:00 22.3 15 Sudeste 27 Sudeste 0 -- -- 60
2017-08-13 01:00:00 23.1 19 Sudeste 28 Sudeste 0 -- -- 55
2017-08-13 00:00:00 23.9 16 Sudeste 28 Sudeste 0 -- -- 53
2017-08-12 23:00:00 24.4 16 Sudeste 27 Sur 0 -- -- 50
2017-08-12 22:00:00 25.5 17 Sudeste 30 Sudeste 0 -- -- 47
2017-08-12 21:00:00 27.5 18 Sur 28 Sur 0 -- -- 44
2017-08-12 20:00:00 30.6 18 Sur 27 Sur 0 -- -- 36
2017-08-12 19:00:00 32.2 18 Sur 27 Sur 0 -- -- 31
2017-08-12 18:00:00 33.2 19 Sur 32 Sudoeste 0 -- -- 28
2017-08-12 17:00:00 33.5 19 Sur 28 Sudoeste 0 -- -- 27
2017-08-12 16:00:00 34.4 13 Sur 19 Sudoeste 0 -- -- 28
2017-08-12 15:00:00 33.9 13 Sur 21 Sudoeste 0 -- -- 30
2017-08-12 14:00:00 33.4 11 Sur 21 Oeste 0 -- -- 30
2017-08-12 13:00:00 32.5 8 Sur 17 Sudeste 0 -- -- 29
2017-08-12 12:00:00 30.6 5 Sur 23 Este 0 -- -- 34
2017-08-12 11:00:00 28.7 11 Sudeste 22 Sudeste 0 -- -- 40
2017-08-12 10:00:00 26 12 Sudeste 25 Sudeste 0 -- -- 51
2017-08-12 09:00:00 22.6 15 Sudeste 23 Sudeste 0 -- -- 65
2017-08-12 08:00:00 20.4 15 Sudeste 23 Sudeste 0 -- -- 67
2017-08-12 07:00:00 20.2 13 Sudeste 23 Sudeste 0 -- -- 65
2017-08-12 06:00:00 19.5 4 Este 10 Sudeste 0 -- -- 64
2017-08-12 05:00:00 20.5 7 Sudeste 13 Sudeste 0 -- -- 59
2017-08-12 04:00:00 20.6 9 Sudeste 13 Este 0 -- -- 59
2017-08-12 03:00:00 21.9 3 Sudeste 14 Sudoeste 0 -- -- 60
2017-08-12 02:00:00 22.5 4 Sur 15 Sudeste 0 -- -- 59
2017-08-12 01:00:00 23.4 12 Sudeste 29 Sudeste 0 -- -- 53
2017-08-12 00:00:00 24.7 21 Sudeste 33 Sudeste 0 -- -- 48
2017-08-11 23:00:00 26 18 Sudeste 26 Sudeste 0 -- -- 42
2017-08-11 22:00:00 27.5 14 Sudeste 24 Sur 0 -- -- 38
2017-08-11 21:00:00 30.5 13 Sur 23 Sur 0 -- -- 35
2017-08-11 20:00:00 34.5 7 Oeste 16 Sur 0 -- -- 27
2017-08-11 19:00:00 35.2 7 Oeste 17 Oeste 0 -- -- 29
2017-08-11 18:00:00 34.5 5 Norte 16 Oeste 0 -- -- 31
2017-08-11 17:00:00 35 8 Sudoeste 14 Sudoeste 0 -- -- 30
2017-08-11 16:00:00 34.3 8 Oeste 17 Oeste 0 -- -- 32
2017-08-11 15:00:00 33.1 8 Sudoeste 17 Oeste 0 -- -- 35
2017-08-11 14:00:00 32.1 9 Oeste 18 Sudeste 0 -- -- 38
2017-08-11 13:00:00 30.7 9 Sudeste 18 Este 0 -- -- 43
2017-08-11 12:00:00 29.3 6 Sudeste 16 Nordeste 0 -- -- 48
2017-08-11 11:00:00 27.7 6 Sudeste 17 Este 0 -- -- 50
2017-08-11 10:00:00 25.9 10 Sudeste 17 Sudeste 0 -- -- 60
2017-08-11 09:00:00 22.3 3 Nordeste 9 Sudeste 0 -- -- 72
2017-08-11 08:00:00 19.1 3 Sudeste 10 Sudeste 0 -- -- 84
2017-08-11 07:00:00 18.4 6 Este 11 Este 0 -- -- 85
2017-08-11 06:00:00 19 4 Este 8 Este 0 -- -- 84
2017-08-11 05:00:00 19.5 2 Este 9 Sudeste 0 -- -- 85
2017-08-11 04:00:00 20.6 4 Sudeste 10 Sudeste 0 -- -- 81
2017-08-11 03:00:00 21.3 6 Sudeste 18 Sur 0 -- -- 79
2017-08-11 02:00:00 22 9 Sudeste 24 Sudeste 0 -- -- 76
2017-08-11 01:00:00 22.5 12 Sudeste 33 Sudeste 0 -- -- 73
2017-08-11 00:00:00 23.2 19 Sudeste 31 Sudeste 0 -- -- 70
2017-08-10 23:00:00 24.3 18 Sudeste 31 Sudeste 0 -- -- 63
2017-08-10 22:00:00 25.8 16 Sur 28 Sudeste 0 -- -- 58
2017-08-10 21:00:00 28.4 15 Sur 28 Sur 0 -- -- 49
2017-08-10 20:00:00 31.1 16 Sur 27 Sur 0 -- -- 41
2017-08-10 19:00:00 34.6 5 Sudoeste 12 Noroeste 0 -- -- 32
2017-08-10 18:00:00 33.8 4 Norte 15 Sur 0 -- -- 26
2017-08-10 17:00:00 32.9 6 Norte 14 Oeste 0 -- -- 25
2017-08-10 16:00:00 33.2 8 Sudoeste 17 Sudoeste 0 -- -- 24
2017-08-10 15:00:00 31.8 4 Oeste 13 Oeste 0 -- -- 28
2017-08-10 14:00:00 30.9 6 Noroeste 18 Nordeste 0 -- -- 30
2017-08-10 13:00:00 29 8 Norte 22 Norte 0 -- -- 33
2017-08-10 12:00:00 27.9 7 Noroeste 15 Norte 0 -- -- 36
2017-08-10 11:00:00 26.2 6 Norte 13 Nordeste 0 -- -- 40
2017-08-10 10:00:00 24 7 Norte 12 Norte 0 -- -- 45
2017-08-10 09:00:00 21.5 4 Norte 15 Nordeste 0 -- -- 50
2017-08-10 08:00:00 16.5 4 Nordeste 8 Este 0 -- -- 63
2017-08-10 07:00:00 15.8 3 Este 4 Este 0 -- -- 65
2017-08-10 06:00:00 15.4 3 Este 6 Este 0 -- -- 62
2017-08-10 05:00:00 16.5 4 Este 6 Sudeste 0 -- -- 60
2017-08-10 04:00:00 16.7 4 Este 8 Este 0 -- -- 61
2017-08-10 03:00:00 17.3 5 Este 9 Sudeste 0 -- -- 56
2017-08-10 02:00:00 19.3 3 Sudeste 6 Este 0 -- -- 54
2017-08-10 01:00:00 21.3 0 Calma 12 Oeste 0 -- -- 51
2017-08-10 00:00:00 22.7 8 Oeste 16 Oeste 0 -- -- 48
2017-08-09 23:00:00 24.3 8 Sudoeste 28 Oeste 0 -- -- 40
2017-08-09 22:00:00 26.4 17 Oeste 25 Oeste 0 -- -- 33
2017-08-09 21:00:00 28.7 11 Sudoeste 25 Sudoeste 0 -- -- 19
2017-08-09 20:00:00 30.7 19 Oeste 28 Oeste 0 -- -- 18
2017-08-09 19:00:00 32.2 17 Sudoeste 33 Oeste 0 -- -- 18
2017-08-09 18:00:00 32.7 21 Oeste 31 Oeste 0 -- -- 17
2017-08-09 17:00:00 33 14 Oeste 31 Oeste 0 -- -- 17
2017-08-09 16:00:00 32.4 16 Oeste 39 Oeste 0 -- -- 21
2017-08-09 15:00:00 31.5 16 Oeste 32 Oeste 0 -- -- 22
2017-08-09 14:00:00 31 17 Oeste 29 Sudoeste 0 -- -- 24
2017-08-09 13:00:00 29.8 15 Oeste 22 Sudoeste 0 -- -- 25
2017-08-09 12:00:00 28.3 9 Oeste 14 Oeste 0 -- -- 25
2017-08-09 11:00:00 25.8 6 Sudoeste 14 Sudoeste 0 -- -- 32
2017-08-09 10:00:00 23.4 8 Sudoeste 14 Sudoeste 0 -- -- 37
2017-08-09 09:00:00 21.7 5 Sur 10 Sur 0 -- -- 39
2017-08-09 08:00:00 15.4 0 Calma 9 Sudeste 0 -- -- 51
2017-08-09 07:00:00 14.9 2 Sur 6 Sudeste 0 -- -- 51
2017-08-09 06:00:00 15.9 5 Sudeste 9 Sudeste 0 -- -- 48
2017-08-09 05:00:00 17.1 3 Sur 8 Sudoeste 0 -- -- 46
2017-08-09 04:00:00 17.8 3 Sur 5 Sudoeste 0 -- -- 46
2017-08-09 03:00:00 18.7 0 Calma 3 Sudoeste 0 -- -- 45
2017-08-09 02:00:00 19.7 0 Calma 5 Oeste 0 -- -- 40
2017-08-09 01:00:00 21.3 0 Calma 7 Sudoeste 0 -- -- 30
2017-08-09 00:00:00 23.2 2 Sudoeste 14 Sudoeste 0 -- -- 23
2017-08-08 23:00:00 25.1 4 Este 8 Noroeste 0 -- -- 20
2017-08-08 22:00:00 27.8 4 Noroeste 22 Oeste 0 -- -- 19
2017-08-08 21:00:00 32.1 12 Oeste 22 Oeste 0 -- -- 15
2017-08-08 20:00:00 33.9 14 Oeste 21 Oeste 0 -- -- 14
2017-08-08 19:00:00 34.8 10 Oeste 19 Oeste 0 -- -- 15
2017-08-08 18:00:00 35.1 12 Oeste 22 Sudoeste 0 -- -- 16
2017-08-08 17:00:00 34.8 9 Oeste 23 Sudoeste 0 -- -- 15
2017-08-08 16:00:00 34.3 13 Sudoeste 23 Noroeste 0 -- -- 16
2017-08-08 15:00:00 33.1 10 Oeste 25 Noroeste 0 -- -- 16
2017-08-08 14:00:00 31.7 10 Sudoeste 28 Oeste 0 -- -- 18
2017-08-08 13:00:00 30.5 10 Oeste 18 Oeste 0 -- -- 21
2017-08-08 12:00:00 29 7 Oeste 13 Oeste 0 -- -- 22
2017-08-08 11:00:00 27.2 5 Noroeste 10 Noroeste 0 -- -- 23
2017-08-08 10:00:00 24.4 8 Oeste 12 Oeste 0 -- -- 30
2017-08-08 09:00:00 23.1 2 Sudoeste 4 Sudoeste 0 -- -- 33
2017-08-08 08:00:00 18.5 2 Sur 4 Sur 0 -- -- 42
2017-08-08 07:00:00 19.1 3 Sur 9 Sudeste 0 -- -- 40
2017-08-08 06:00:00 20.3 3 Sudeste 9 Este 0 -- -- 37
2017-08-08 05:00:00 21.7 3 Este 9 Sudoeste 0 -- -- 34
2017-08-08 04:00:00 23.7 2 Oeste 8 Oeste 0 -- -- 30
2017-08-08 03:00:00 24.5 2 Este 7 Sur 0 -- -- 29
2017-08-08 02:00:00 26.8 3 Sudoeste 13 Sudoeste 0 -- -- 26
2017-08-08 01:00:00 28.7 8 Sudoeste 15 Sudoeste 0 -- -- 25
2017-08-08 00:00:00 29.3 6 Oeste 16 Sudoeste 0 -- -- 32
2017-08-07 23:00:00 31.4 10 Sudoeste 23 Sudoeste 0 -- -- 30
2017-08-07 22:00:00 32.9 14 Sudoeste 23 Sudoeste 0 -- -- 26
2017-08-07 21:00:00 34.7 17 Oeste 24 Oeste 0 -- -- 30
2017-08-07 20:00:00 37 12 Oeste 23 Oeste 0 -- -- 21
2017-08-07 19:00:00 38.9 5 Oeste 22 Oeste 0 -- -- 22
2017-08-07 18:00:00 40.1 3 Oeste 8 Sudoeste 0 -- -- 18
2017-08-07 17:00:00 39.5 5 Oeste 9 Oeste 0 -- -- 19
2017-08-07 16:00:00 38.7 8 Oeste 13 Oeste 0 -- -- 20
2017-08-07 15:00:00 39.8 6 Oeste 8 Noroeste 0 -- -- 23
2017-08-07 14:00:00 38.4 6 Sur 12 Oeste 0 -- -- 22
2017-08-07 13:00:00 36.3 8 Sur 15 Sudeste 0 -- -- 26
2017-08-07 12:00:00 34.9 10 Sudeste 16 Este 0 -- -- 23
2017-08-07 11:00:00 32.2 6 Sudeste 13 Sudeste 0 -- -- 23
2017-08-07 10:00:00 29.2 4 Oeste 8 Norte 0 -- -- 34
2017-08-07 09:00:00 27.3 3 Sur 22 Sudeste 0 -- -- 42
2017-08-07 08:00:00 25.7 11 Sudoeste 47 Oeste 0 -- -- 44
2017-08-07 07:00:00 24.9 5 Sudeste 22 Sudeste 0 -- -- 45
2017-08-07 06:00:00 25.6 5 Sudeste 16 Sudeste 0 -- -- 42
2017-08-07 05:00:00 26.6 11 Este 32 Este 0 -- -- 38
2017-08-07 04:00:00 26.2 12 Sudeste 17 Sudeste 0 -- -- 35
2017-08-07 03:00:00 26 3 Oeste 12 Sudeste 0 -- -- 42
2017-08-07 02:00:00 27.3 12 Sudeste 14 Sudeste 0 -- -- 35
2017-08-07 01:00:00 28.6 10 Sudeste 15 Sudeste 0 -- -- 33
2017-08-07 00:00:00 29.8 9 Sur 22 Sudoeste 0 -- -- 26
2017-08-06 23:00:00 32 14 Sudoeste 28 Oeste 0 -- -- 24
2017-08-06 22:00:00 33.5 9 Sur 16 Sudoeste 0 -- -- 17
2017-08-06 21:00:00 36.3 10 Sudoeste 13 Sudoeste 0 -- -- 15
2017-08-06 20:00:00 39.4 5 Sudoeste 8 Sudoeste 0 -- -- 12
2017-08-06 19:00:00 40.6 2 Oeste 6 Sudoeste 0 -- -- 11
2017-08-06 18:00:00 40.9 3 Oeste 6 Oeste 0 -- -- 11
2017-08-06 17:00:00 40.9 3 Sudoeste 7 Oeste 0 -- -- 11
2017-08-06 16:00:00 40.2 5 Sudoeste 8 Sudoeste 0 -- -- 16
2017-08-06 15:00:00 38.9 6 Oeste 10 Oeste 0 -- -- 21
2017-08-06 14:00:00 38.6 5 Oeste 10 Oeste 0 -- -- 18
2017-08-06 13:00:00 37.3 4 Noroeste 10 Sur 0 -- -- 22
2017-08-06 12:00:00 35.5 8 Sur 12 Este 0 -- -- 24
2017-08-06 11:00:00 33.1 9 Sudeste 13 Sudeste 0 -- -- 29
2017-08-06 10:00:00 30 7 Sur 11 Sur 0 -- -- 36
2017-08-06 09:00:00 27.2 6 Sudeste 10 Sudeste 0 -- -- 40
2017-08-06 08:00:00 22.2 7 Sudeste 13 Sudeste 0 -- -- 48
2017-08-06 07:00:00 21.9 6 Sudeste 12 Sudeste 0 -- -- 47
2017-08-06 06:00:00 22.3 0 Calma 5 Sudeste 0 -- -- 45
2017-08-06 05:00:00 23.4 4 Sur 8 Sudoeste 0 -- -- 43
2017-08-06 04:00:00 24 4 Sur 8 Sudeste 0 -- -- 41
2017-08-06 03:00:00 26 3 Sudeste 8 Sudeste 0 -- -- 38
2017-08-06 02:00:00 28 4 Sudeste 14 Sudoeste 0 -- -- 34
2017-08-06 01:00:00 29.5 8 Sur 16 Sudeste 0 -- -- 30
2017-08-06 00:00:00 31.6 11 Sur 19 Sur 0 -- -- 30
2017-08-05 23:00:00 32.5 11 Sudoeste 21 Sudoeste 0 -- -- 30
2017-08-05 22:00:00 33.8 12 Sudoeste 19 Sudoeste 0 -- -- 24
2017-08-05 21:00:00 36.6 12 Sudoeste 15 Oeste 0 -- -- 22
2017-08-05 20:00:00 39.1 4 Sudoeste 8 Oeste 0 -- -- 18
2017-08-05 19:00:00 40.6 3 Sudoeste 6 Oeste 0 -- -- 19
2017-08-05 18:00:00 41.2 2 Oeste 5 Oeste 0 -- -- 18
2017-08-05 17:00:00 41.4 3 Oeste 8 Oeste 0 -- -- 18
2017-08-05 16:00:00 41.4 3 Oeste 10 Noroeste 0 -- -- 18
2017-08-05 15:00:00 40.3 4 Oeste 8 Oeste 0 -- -- 18
2017-08-05 14:00:00 39 7 Oeste 10 Oeste 0 -- -- 23
2017-08-05 13:00:00 37.7 9 Oeste 10 Sudoeste 0 -- -- 22
2017-08-05 12:00:00 36.3 9 Oeste 14 Sudoeste 0 -- -- 23
2017-08-05 11:00:00 34.8 9 Sur 17 Sur 0 -- -- 23
2017-08-05 10:00:00 32.4 14 Sudeste 21 Sudeste 0 -- -- 26
2017-08-05 09:00:00 30.1 17 Sudeste 25 Sudeste 0 -- -- 28
2017-08-05 08:00:00 27.4 10 Sudeste 21 Sudeste 0 -- -- 32
2017-08-05 07:00:00 25.7 12 Sudeste 19 Sudeste 0 -- -- 34
2017-08-05 06:00:00 26.9 16 Sudeste 23 Sudeste 0 -- -- 32
2017-08-05 05:00:00 27.9 15 Sudeste 20 Sudeste 0 -- -- 30
2017-08-05 04:00:00 27.6 10 Sudeste 17 Sudeste 0 -- -- 31
2017-08-05 03:00:00 28.6 13 Sudeste 18 Sudeste 0 -- -- 32
2017-08-05 02:00:00 29.1 13 Sudeste 16 Sudeste 0 -- -- 34
2017-08-05 01:00:00 29.6 4 Sudeste 8 Sudeste 0 -- -- 36
2017-08-05 00:00:00 32.3 6 Sudoeste 15 Sudoeste 0 -- -- 32
2017-08-04 23:00:00 33.9 9 Sudoeste 21 Sudoeste 0 -- -- 26
2017-08-04 22:00:00 35.4 6 Sur 9 Sur 0 -- -- 22
2017-08-04 21:00:00 39.2 6 Sudoeste 8 Sur 0 -- -- 20
2017-08-04 20:00:00 41 4 Oeste 5 Noroeste 0 -- -- 19
2017-08-04 19:00:00 41.9 2 Oeste 4 Sudoeste 0 -- -- 16
2017-08-04 18:00:00 41.9 2 Oeste 5 Noroeste 0 -- -- 14
2017-08-04 17:00:00 41.9 2 Oeste 5 Noroeste 0 -- -- 15
2017-08-04 16:00:00 41.2 4 Sudoeste 6 Oeste 0 -- -- 15
2017-08-04 15:00:00 40.8 5 Oeste 6 Noroeste 0 -- -- 14
2017-08-04 14:00:00 39.3 5 Oeste 6 Sudoeste 0 -- -- 15
2017-08-04 13:00:00 37.4 5 Noroeste 9 Nordeste 0 -- -- 17
2017-08-04 12:00:00 35.6 5 Norte 10 Oeste 0 -- -- 21
2017-08-04 11:00:00 33.2 4 Norte 8 Norte 0 -- -- 24
2017-08-04 10:00:00 31.3 3 Noroeste 10 Sudeste 0 -- -- 30
2017-08-04 09:00:00 27.8 0 Calma 9 Este 0 -- -- 36
2017-08-04 08:00:00 22.4 6 Este 9 Este 0 -- -- 39
2017-08-04 07:00:00 21.6 6 Este 10 Sudeste 0 -- -- 39
2017-08-04 06:00:00 21.8 6 Este 14 Sudeste 0 -- -- 39
2017-08-04 05:00:00 21.1 4 Sudeste 8 Este 0 -- -- 40
2017-08-04 04:00:00 22.1 4 Sudeste 10 Sudeste 0 -- -- 38
2017-08-04 03:00:00 22.8 4 Sudeste 12 Sudeste 0 -- -- 38
2017-08-04 02:00:00 23.8 3 Sudeste 6 Sudeste 0 -- -- 35
2017-08-04 01:00:00 24.8 5 Sudoeste 6 Sudoeste 0 -- -- 31
2017-08-04 00:00:00 26.5 0 Calma 8 Sudoeste 0 -- -- 29
2017-08-03 23:00:00 28.4 0 Calma 5 Noroeste 0 -- -- 26
2017-08-03 22:00:00 31.8 0 Calma 8 Sudoeste 0 -- -- 23
2017-08-03 21:00:00 37.2 8 Sudoeste 10 Sudoeste 0 -- -- 18
2017-08-03 20:00:00 39.1 6 Oeste 8 Sudoeste 0 -- -- 17
2017-08-03 19:00:00 40.5 4 Oeste 6 Oeste 0 -- -- 15
2017-08-03 18:00:00 40.1 4 Oeste 6 Oeste 0 -- -- 16
2017-08-03 17:00:00 39.2 3 Norte 8 Oeste 0 -- -- 14
2017-08-03 16:00:00 38.3 5 Nordeste 8 Noroeste 0 -- -- 14
2017-08-03 15:00:00 37.9 5 Norte 10 Este 0 -- -- 16
2017-08-03 14:00:00 36.3 7 Norte 10 Noroeste 0 -- -- 19
2017-08-03 13:00:00 34.6 6 Noroeste 10 Noroeste 0 -- -- 20
2017-08-03 12:00:00 32.6 6 Noroeste 14 Norte 0 -- -- 24
2017-08-03 11:00:00 29.8 4 Noroeste 8 Noroeste 0 -- -- 30
2017-08-03 10:00:00 27.5 4 Oeste 9 Este 0 -- -- 32
2017-08-03 09:00:00 24.9 4 Este 6 Este 0 -- -- 40
2017-08-03 08:00:00 19.5 5 Este 9 Este 0 -- -- 46
2017-08-03 07:00:00 19.7 6 Este 12 Sudeste 0 -- -- 45
2017-08-03 06:00:00 18.9 4 Este 9 Este 0 -- -- 46
2017-08-03 05:00:00 20.4 5 Este 15 Sudeste 0 -- -- 43
2017-08-03 04:00:00 20.7 5 Este 12 Sudeste 0 -- -- 41
2017-08-03 03:00:00 22.2 11 Sudeste 13 Sudeste 0 -- -- 39
2017-08-03 02:00:00 22.8 8 Sudeste 9 Sudeste 0 -- -- 38
2017-08-03 01:00:00 24.8 0 Calma 7 Sudoeste 0 -- -- 35
2017-08-03 00:00:00 25.9 0 Calma 18 Sudoeste 0 -- -- 31
2017-08-02 23:00:00 26 7 Sudoeste 15 Sudoeste 0 -- -- 34
2017-08-02 22:00:00 29.3 0 Calma 9 Oeste 0 -- -- 23
2017-08-02 21:00:00 34.4 7 Sudoeste 13 Oeste 0 -- -- 19
2017-08-02 20:00:00 36.2 9 Oeste 13 Noroeste 0 -- -- 16
2017-08-02 19:00:00 37.1 8 Oeste 11 Sudoeste 0 -- -- 17
2017-08-02 18:00:00 37.1 8 Sudoeste 12 Sudoeste 0 -- -- 18
2017-08-02 17:00:00 36.9 8 Sudoeste 13 Oeste 0 -- -- 17
2017-08-02 16:00:00 36 8 Sudoeste 14 Noroeste 0 -- -- 19
2017-08-02 15:00:00 35.3 6 Noroeste 15 Noroeste 0 -- -- 20
2017-08-02 14:00:00 33.9 7 Oeste 16 Oeste 0 -- -- 24
2017-08-02 13:00:00 31.6 5 Oeste 12 Noroeste 0 -- -- 28
2017-08-02 12:00:00 29.6 4 Norte 9 Sudoeste 0 -- -- 31
2017-08-02 11:00:00 27.6 4 Noroeste 7 Norte 0 -- -- 34
2017-08-02 10:00:00 25.5 5 Noroeste 7 Noroeste 0 -- -- 40
2017-08-02 09:00:00 22.9 0 Calma 4 Nordeste 0 -- -- 47
2017-08-02 08:00:00 17.9 3 Este 12 Este 0 -- -- 55
2017-08-02 07:00:00 16.7 3 Sudeste 12 Sudeste 0 -- -- 59
2017-08-02 06:00:00 17.8 7 Este 13 Sudeste 0 -- -- 57
2017-08-02 05:00:00 16.5 4 Este 9 Este 0 -- -- 62
2017-08-02 04:00:00 17.8 3 Este 9 Sudeste 0 -- -- 58
2017-08-02 03:00:00 19 8 Este 9 Sudeste 0 -- -- 55
2017-08-02 02:00:00 20 4 Este 6 Este 0 -- -- 51
2017-08-02 01:00:00 22 3 Nordeste 12 Sudoeste 0 -- -- 46
2017-08-02 00:00:00 23.7 6 Sudoeste 10 Sudoeste 0 -- -- 38
2017-08-01 23:00:00 25.8 7 Sudoeste 12 Sudoeste 0 -- -- 35
2017-08-01 22:00:00 27.3 6 Sur 18 Sudoeste 0 -- -- 33
2017-08-01 21:00:00 29.5 14 Sudoeste 23 Sudoeste 0 -- -- 30
2017-08-01 20:00:00 30 17 Oeste 23 Oeste 0 -- -- 28
2017-08-01 19:00:00 32.7 9 Oeste 18 Sudoeste 0 -- -- 23
2017-08-01 18:00:00 29.6 9 Sudoeste 23 Oeste 0 -- -- 31
2017-08-01 17:00:00 30.2 14 Oeste 27 Oeste 0 -- -- 32
2017-08-01 16:00:00 30.6 13 Oeste 23 Oeste 0 -- -- 33
2017-08-01 15:00:00 30.3 12 Oeste 21 Oeste 0 -- -- 31
2017-08-01 14:00:00 29.3 11 Oeste 18 Oeste 0 -- -- 34
2017-08-01 13:00:00 28.2 5 Noroeste 16 Oeste 0 -- -- 38
2017-08-01 12:00:00 27.1 12 Oeste 28 Oeste 0 -- -- 40
2017-08-01 11:00:00 25.9 5 Este 10 Nordeste 0 -- -- 42
2017-08-01 10:00:00 24.1 3 Sur 10 Este 0 -- -- 47
2017-08-01 09:00:00 18.5 2 Sudeste 9 Este 0 -- -- 59
2017-08-01 08:00:00 16.8 0 Calma 9 Este 0 -- -- 60
2017-08-01 07:00:00 17 4 Este 10 Este 0 -- -- 58
2017-08-01 06:00:00 18.4 4 Sudeste 10 Este 0 -- -- 56
2017-08-01 05:00:00 19 0 Calma 6 Sudeste 0 -- -- 56
2017-08-01 04:00:00 19.7 3 Sur 12 Sudoeste 0 -- -- 57
2017-08-01 03:00:00 21 3 Sur 12 Sur 0 -- -- 57
2017-08-01 02:00:00 21.5 5 Oeste 14 Oeste 0 -- -- 58
2017-08-01 01:00:00 22.8 7 Sudoeste 20 Oeste 0 -- -- 49
2017-08-01 00:00:00 24.5 6 Oeste 23 Oeste 0 -- -- 38
2017-07-31 23:00:00 26.7 12 Sudoeste 27 Oeste 0 -- -- 30
2017-07-31 22:00:00 29 18 Sudoeste 31 Sudoeste 0 -- -- 29
2017-07-31 21:00:00 31.6 18 Oeste 32 Oeste 0 -- -- 28
2017-07-31 20:00:00 33.9 19 Oeste 24 Oeste 0 -- -- 29
2017-07-31 19:00:00 35.5 14 Oeste 19 Oeste 0 -- -- 27
2017-07-31 18:00:00 36.2 13 Oeste 20 Oeste 0 -- -- 24
2017-07-31 17:00:00 36.2 12 Oeste 15 Sudoeste 0 -- -- 23
2017-07-31 16:00:00 35.7 10 Noroeste 20 Oeste 0 -- -- 21
2017-07-31 15:00:00 34.6 13 Oeste 20 Oeste 0 -- -- 24
2017-07-31 14:00:00 33.3 10 Oeste 17 Oeste 0 -- -- 29
2017-07-31 13:00:00 31.5 12 Oeste 19 Oeste 0 -- -- 31
2017-07-31 12:00:00 29.7 5 Oeste 12 Oeste 0 -- -- 36
2017-07-31 11:00:00 27.3 4 Oeste 10 Oeste 0 -- -- 42
2017-07-31 10:00:00 25.8 5 Oeste 10 Sudoeste 0 -- -- 45
2017-07-31 09:00:00 23.8 4 Sur 6 Sur 0 -- -- 50
2017-07-31 08:00:00 19.3 0 Calma 6 Sudeste 0 -- -- 58
2017-07-31 07:00:00 19.2 3 Sudoeste 7 Sudeste 0 -- -- 59
2017-07-31 06:00:00 19.5 0 Calma 4 Este 0 -- -- 62
2017-07-31 05:00:00 20.5 3 Sudeste 4 Sudeste 0 -- -- 58
2017-07-31 04:00:00 22.2 5 Sudeste 8 Sudeste 0 -- -- 59
2017-07-31 03:00:00 23.4 3 Sur 5 Sur 0 -- -- 56
2017-07-31 02:00:00 24.7 0 Calma 9 Noroeste 0 -- -- 51
2017-07-31 01:00:00 26.4 6 Oeste 11 Oeste 0 -- -- 49
2017-07-31 00:00:00 28.5 9 Oeste 23 Sudoeste 0 -- -- 46
2017-07-30 23:00:00 30.3 9 Oeste 27 Sudoeste 0 -- -- 41
2017-07-30 22:00:00 32.3 10 Sudoeste 17 Sudoeste 0 -- -- 31
2017-07-30 21:00:00 34.9 13 Oeste 19 Sudoeste 0 -- -- 26
2017-07-30 20:00:00 36.9 12 Oeste 13 Oeste 0 -- -- 26
2017-07-30 19:00:00 38.6 8 Oeste 9 Sudoeste 0 -- -- 25
2017-07-30 18:00:00 39 6 Oeste 15 Sudoeste 0 -- -- 23
2017-07-30 17:00:00 39.6 6 Oeste 9 Oeste 0 -- -- 21
2017-07-30 16:00:00 39.2 7 Sudoeste 11 Oeste 0 -- -- 21
2017-07-30 15:00:00 38.5 10 Oeste 13 Oeste 0 -- -- 20
2017-07-30 14:00:00 37.9 10 Oeste 14 Oeste 0 -- -- 19
2017-07-30 13:00:00 36.7 8 Oeste 12 Oeste 0 -- -- 20
2017-07-30 12:00:00 35.3 6 Oeste 10 Sur 0 -- -- 19
2017-07-30 11:00:00 32.7 6 Noroeste 9 Norte 0 -- -- 26
2017-07-30 10:00:00 30.7 4 Norte 9 Este 0 -- -- 30
2017-07-30 09:00:00 27.7 6 Este 13 Sudeste 0 -- -- 29
2017-07-30 08:00:00 21.3 7 Este 9 Este 0 -- -- 37
2017-07-30 07:00:00 20.5 6 Este 9 Sudeste 0 -- -- 37
2017-07-30 06:00:00 21.1 4 Este 8 Este 0 -- -- 35
2017-07-30 05:00:00 21.9 4 Este 10 Sudeste 0 -- -- 34
2017-07-30 04:00:00 23 4 Este 12 Sudeste 0 -- -- 33
2017-07-30 03:00:00 24.2 5 Sudeste 7 Sudeste 0 -- -- 31
2017-07-30 02:00:00 26 6 Sudoeste 15 Sur 0 -- -- 30
2017-07-30 01:00:00 26.4 6 Sudeste 11 Sudoeste 0 -- -- 31
2017-07-30 00:00:00 27.7 4 Sudoeste 13 Sudoeste 0 -- -- 27
2017-07-29 23:00:00 29.4 5 Oeste 14 Oeste 0 -- -- 25
2017-07-29 22:00:00 31.8 6 Sudoeste 16 Sudoeste 0 -- -- 20
2017-07-29 21:00:00 35.9 10 Sudoeste 14 Sudoeste 0 -- -- 16
2017-07-29 20:00:00 38.2 9 Oeste 10 Sudoeste 0 -- -- 16
2017-07-29 19:00:00 39.7 5 Oeste 8 Oeste 0 -- -- 14
2017-07-29 18:00:00 39.9 4 Oeste 8 Sudoeste 0 -- -- 14
2017-07-29 17:00:00 40 6 Oeste 9 Oeste 0 -- -- 15
2017-07-29 16:00:00 39.2 6 Oeste 10 Oeste 0 -- -- 15
2017-07-29 15:00:00 38.8 8 Oeste 10 Sudoeste 0 -- -- 16
2017-07-29 14:00:00 37.8 8 Oeste 11 Oeste 0 -- -- 18
2017-07-29 13:00:00 36.6 6 Sudoeste 9 Oeste 0 -- -- 19
2017-07-29 12:00:00 34.3 6 Oeste 9 Oeste 0 -- -- 20
2017-07-29 11:00:00 31.5 5 Noroeste 9 Noroeste 0 -- -- 23
2017-07-29 10:00:00 29.8 3 Oeste 9 Sudeste 0 -- -- 24
2017-07-29 09:00:00 27.1 9 Sudeste 12 Sudeste 0 -- -- 25
2017-07-29 08:00:00 20.4 0 Calma 8 Este 0 -- -- 37
2017-07-29 07:00:00 19.9 5 Este 10 Este 0 -- -- 35
2017-07-29 06:00:00 20.8 5 Este 9 Este 0 -- -- 33
2017-07-29 05:00:00 21.3 5 Este 12 Sudeste 0 -- -- 34
2017-07-29 04:00:00 21.7 4 Sudeste 9 Sudeste 0 -- -- 35
2017-07-29 03:00:00 22.4 7 Sudeste 12 Sudeste 0 -- -- 35
2017-07-29 02:00:00 24.5 3 Sudeste 9 Sudoeste 0 -- -- 33
2017-07-29 01:00:00 26.3 7 Sudoeste 13 Sudoeste 0 -- -- 31
2017-07-29 00:00:00 27.7 9 Oeste 16 Oeste 0 -- -- 29
2017-07-28 23:00:00 29.6 8 Oeste 14 Sudoeste 0 -- -- 22
2017-07-28 22:00:00 31.6 6 Sudoeste 15 Sudoeste 0 -- -- 20
2017-07-28 21:00:00 36 11 Sudoeste 15 Sudoeste 0 -- -- 16
2017-07-28 20:00:00 38.6 8 Oeste 9 Sudoeste 0 -- -- 15
2017-07-28 19:00:00 39.7 5 Oeste 7 Sur 0 -- -- 15
2017-07-28 18:00:00 40.3 5 Oeste 6 Noroeste 0 -- -- 14
2017-07-28 17:00:00 39.8 4 Oeste 7 Oeste 0 -- -- 14
2017-07-28 16:00:00 39.7 6 Noroeste 9 Oeste 0 -- -- 15
2017-07-28 15:00:00 39.2 6 Noroeste 9 Oeste 0 -- -- 18
2017-07-28 14:00:00 37.9 7 Sudoeste 9 Noroeste 0 -- -- 18
2017-07-28 13:00:00 36.4 5 Noroeste 10 Oeste 0 -- -- 19
2017-07-28 12:00:00 34.2 4 Noroeste 9 Sudoeste 0 -- -- 25
2017-07-28 11:00:00 31.8 7 Oeste 11 Oeste 0 -- -- 28
2017-07-28 10:00:00 30 3 Sur 10 Sudeste 0 -- -- 31
2017-07-28 09:00:00 26.3 4 Este 10 Sudeste 0 -- -- 40
2017-07-28 08:00:00 21.5 7 Sudeste 10 Sudeste 0 -- -- 47
2017-07-28 07:00:00 20.6 6 Sudeste 9 Sudeste 0 -- -- 48
2017-07-28 06:00:00 22.1 2 Sudeste 12 Sudeste 0 -- -- 45
2017-07-28 05:00:00 23.8 9 Sudeste 14 Sudeste 0 -- -- 43
2017-07-28 04:00:00 23.9 12 Sudeste 14 Sudeste 0 -- -- 43
2017-07-28 03:00:00 24.4 9 Sudeste 15 Sudeste 0 -- -- 41
2017-07-28 02:00:00 24.7 9 Sudeste 12 Sudeste 0 -- -- 40
2017-07-28 01:00:00 26.8 5 Sudoeste 12 Sudoeste 0 -- -- 39
2017-07-28 00:00:00 28.1 6 Oeste 11 Sudoeste 0 -- -- 38
2017-07-27 23:00:00 29.2 9 Oeste 13 Oeste 0 -- -- 37
2017-07-27 22:00:00 31.3 6 Sudoeste 12 Oeste 0 -- -- 30
2017-07-27 21:00:00 35.4 10 Oeste 15 Oeste 0 -- -- 24
2017-07-27 20:00:00 37.5 9 Oeste 11 Sudoeste 0 -- -- 21
2017-07-27 19:00:00 38.4 8 Oeste 9 Oeste 0 -- -- 20
2017-07-27 18:00:00 38.9 6 Oeste 10 Sudoeste 0 -- -- 20
2017-07-27 17:00:00 38.7 8 Noroeste 11 Noroeste 0 -- -- 21
2017-07-27 16:00:00 38 8 Sudoeste 14 Oeste 0 -- -- 22
2017-07-27 15:00:00 36.9 11 Oeste 16 Oeste 0 -- -- 29
2017-07-27 14:00:00 35.9 12 Sudoeste 15 Sudoeste 0 -- -- 31
2017-07-27 13:00:00 34.6 7 Oeste 15 Oeste 0 -- -- 32
2017-07-27 12:00:00 32.7 6 Sudoeste 14 Sudoeste 0 -- -- 38
2017-07-27 11:00:00 30.2 9 Sur 19 Sudeste 0 -- -- 43
2017-07-27 10:00:00 28.2 15 Sudeste 23 Sudeste 0 -- -- 43
2017-07-27 09:00:00 25.5 15 Sudeste 24 Este 0 -- -- 48
2017-07-27 08:00:00 23 11 Sudeste 17 Sudeste 0 -- -- 53
2017-07-27 07:00:00 22 10 Sudeste 28 Sudeste 0 -- -- 62
2017-07-27 06:00:00 21.9 17 Sudeste 21 Sudeste 0 -- -- 60
2017-07-27 05:00:00 22.6 14 Sudeste 19 Sudeste 0 -- -- 58
2017-07-27 04:00:00 22.4 10 Sudeste 15 Sudeste 0 -- -- 58
2017-07-27 03:00:00 22.4 2 Sur 10 Sudeste 0 -- -- 59
2017-07-27 02:00:00 23.6 8 Sudeste 10 Sudeste 0 -- -- 57
2017-07-27 01:00:00 24.8 4 Sur 8 Sudoeste 0 -- -- 53
2017-07-27 00:00:00 25.9 4 Sudoeste 8 Sudoeste 0 -- -- 47
2017-07-26 23:00:00 26 3 Sur 7 Este 0 -- -- 40
2017-07-26 22:00:00 28.4 0 Calma 3 Sudeste 0 -- -- 36
2017-07-26 21:00:00 33.1 2 Oeste 14 Oeste 0 -- -- 30
2017-07-26 20:00:00 33.6 9 Oeste 16 Oeste 0 -- -- 28
2017-07-26 19:00:00 34.3 10 Oeste 15 Oeste 0 -- -- 27
2017-07-26 18:00:00 34.2 7 Oeste 18 Oeste 0 -- -- 30
2017-07-26 17:00:00 33.5 10 Noroeste 17 Oeste 0 -- -- 31
2017-07-26 16:00:00 33.1 9 Sudoeste 18 Oeste 0 -- -- 30
2017-07-26 15:00:00 32.3 7 Oeste 16 Sudoeste 0 -- -- 31
2017-07-26 14:00:00 31.6 10 Oeste 17 Oeste 0 -- -- 35
2017-07-26 13:00:00 30.2 9 Noroeste 16 Oeste 0 -- -- 36
2017-07-26 12:00:00 29.5 10 Oeste 15 Oeste 0 -- -- 40
2017-07-26 11:00:00 28.2 6 Sur 14 Sudeste 0 -- -- 45
2017-07-26 10:00:00 25.5 10 Sudeste 15 Sudeste 0 -- -- 59
2017-07-26 09:00:00 24.4 2 Norte 9 Este 0 -- -- 60
2017-07-26 08:00:00 21.5 3 Nordeste 9 Norte 0 -- -- 62
2017-07-26 07:00:00 20.5 6 Sudeste 19 Sudeste 0 -- -- 70
2017-07-26 06:00:00 21.5 14 Sudeste 18 Sudeste 0 -- -- 66
2017-07-26 05:00:00 21.2 10 Sudeste 13 Sudeste 0 -- -- 63
2017-07-26 04:00:00 21.6 10 Sudeste 12 Sur 0 -- -- 62
2017-07-26 03:00:00 22.5 7 Sur 11 Sur 0 -- -- 63
2017-07-26 02:00:00 23.6 4 Sudoeste 13 Oeste 0 -- -- 60
2017-07-26 01:00:00 24.9 10 Sudoeste 13 Sudoeste 0 -- -- 56
2017-07-26 00:00:00 26.9 6 Oeste 15 Oeste 0 -- -- 47
2017-07-25 23:00:00 28.6 12 Oeste 27 Oeste 0 -- -- 43
2017-07-25 22:00:00 30.5 17 Oeste 30 Oeste 0 -- -- 39
2017-07-25 21:00:00 33.2 21 Oeste 32 Oeste 0 -- -- 32
2017-07-25 20:00:00 36.3 13 Sudoeste 15 Oeste 0 -- -- 23
2017-07-25 19:00:00 37.9 9 Oeste 11 Oeste 0 -- -- 19
2017-07-25 18:00:00 38 9 Sudoeste 12 Oeste 0 -- -- 20
2017-07-25 17:00:00 37.7 10 Oeste 19 Oeste 0 -- -- 19
2017-07-25 16:00:00 37 8 Noroeste 15 Oeste 0 -- -- 21
2017-07-25 15:00:00 36.7 11 Sudoeste 15 Oeste 0 -- -- 20
2017-07-25 14:00:00 36 8 Oeste 14 Oeste 0 -- -- 23
2017-07-25 13:00:00 33.6 7 Oeste 10 Oeste 0 -- -- 29
2017-07-25 12:00:00 31.8 5 Norte 10 Noroeste 0 -- -- 33
2017-07-25 11:00:00 29.2 6 Oeste 10 Oeste 0 -- -- 39
2017-07-25 10:00:00 27.3 4 Oeste 7 Oeste 0 -- -- 42
2017-07-25 09:00:00 25.7 0 Calma 9 Sudeste 0 -- -- 48
2017-07-25 08:00:00 20.4 4 Sudeste 6 Sudeste 0 -- -- 55
2017-07-25 07:00:00 18.7 0 Calma 10 Sudeste 0 -- -- 56
2017-07-25 06:00:00 19.4 3 Sudeste 10 Sudeste 0 -- -- 54
2017-07-25 05:00:00 20.1 6 Este 9 Sudeste 0 -- -- 52
2017-07-25 04:00:00 20.8 2 Oeste 7 Este 0 -- -- 51
2017-07-25 03:00:00 22.1 5 Sudeste 11 Sudeste 0 -- -- 48
2017-07-25 02:00:00 23.1 7 Sudeste 9 Sudeste 0 -- -- 46
2017-07-25 01:00:00 25.6 0 Calma 11 Sudoeste 0 -- -- 41
2017-07-25 00:00:00 27.5 7 Oeste 13 Sudoeste 0 -- -- 38
2017-07-24 23:00:00 29.6 10 Oeste 22 Oeste 0 -- -- 35
2017-07-24 22:00:00 31.4 10 Oeste 18 Oeste 0 -- -- 25
2017-07-24 21:00:00 35.6 13 Oeste 17 Oeste 0 -- -- 20
2017-07-24 20:00:00 37.2 11 Oeste 12 Oeste 0 -- -- 20
2017-07-24 19:00:00 37.9 8 Oeste 10 Oeste 0 -- -- 20
2017-07-24 18:00:00 38.2 10 Oeste 12 Oeste 0 -- -- 20
2017-07-24 17:00:00 37.7 10 Oeste 15 Oeste 0 -- -- 20
2017-07-24 16:00:00 36.3 11 Oeste 18 Oeste 0 -- -- 21
2017-07-24 15:00:00 36 12 Oeste 17 Oeste 0 -- -- 20
2017-07-24 14:00:00 34.4 9 Oeste 14 Oeste 0 -- -- 25
2017-07-24 13:00:00 32.6 9 Noroeste 14 Noroeste 0 -- -- 29
2017-07-24 12:00:00 30.3 5 Oeste 13 Oeste 0 -- -- 33
2017-07-24 11:00:00 28.3 5 Noroeste 11 Noroeste 0 -- -- 35
2017-07-24 10:00:00 26.6 5 Oeste 9 Oeste 0 -- -- 37
2017-07-24 09:00:00 25.1 4 Sudeste 6 Sudeste 0 -- -- 38
2017-07-24 08:00:00 19.1 4 Sudeste 8 Sudeste 0 -- -- 50
2017-07-24 07:00:00 18.4 2 Sur 10 Sudeste 0 -- -- 50
2017-07-24 06:00:00 18.3 4 Sudeste 9 Sudeste 0 -- -- 49
2017-07-24 05:00:00 18.5 3 Sudeste 10 Sudeste 0 -- -- 48
2017-07-24 04:00:00 19.1 7 Este 9 Este 0 -- -- 47
2017-07-24 03:00:00 20.9 6 Este 12 Sudeste 0 -- -- 43
2017-07-24 02:00:00 22.8 3 Sudoeste 8 Sudoeste 0 -- -- 42
2017-07-24 01:00:00 24.4 8 Oeste 14 Sudoeste 0 -- -- 39
2017-07-24 00:00:00 26.5 12 Oeste 20 Oeste 0 -- -- 34
2017-07-23 23:00:00 28 10 Oeste 26 Sudoeste 0 -- -- 38
2017-07-23 22:00:00 29.7 11 Sudoeste 21 Sudoeste 0 -- -- 28
2017-07-23 21:00:00 34.3 8 Sudoeste 16 Oeste 0 -- -- 18
2017-07-23 20:00:00 36.1 10 Oeste 14 Sudoeste 0 -- -- 18
2017-07-23 19:00:00 36.5 10 Oeste 13 Noroeste 0 -- -- 18
2017-07-23 18:00:00 36.5 11 Oeste 14 Sudoeste 0 -- -- 19
2017-07-23 17:00:00 36.4 6 Oeste 13 Oeste 0 -- -- 17
2017-07-23 16:00:00 35.4 6 Oeste 18 Sudoeste 0 -- -- 18
2017-07-23 15:00:00 34.2 9 Oeste 18 Oeste 0 -- -- 24
2017-07-23 14:00:00 32 8 Oeste 16 Oeste 0 -- -- 26
2017-07-23 13:00:00 30.3 7 Oeste 13 Oeste 0 -- -- 33
2017-07-23 12:00:00 28.3 7 Oeste 14 Oeste 0 -- -- 37
2017-07-23 11:00:00 25.8 6 Sudoeste 12 Noroeste 0 -- -- 42
2017-07-23 10:00:00 24.8 9 Oeste 13 Oeste 0 -- -- 43
2017-07-23 09:00:00 24.1 0 Calma 7 Este 0 -- -- 44
2017-07-23 08:00:00 18.2 5 Este 10 Este 0 -- -- 56
2017-07-23 07:00:00 16.5 6 Este 11 Este 0 -- -- 60
2017-07-23 06:00:00 17.3 5 Este 9 Sudeste 0 -- -- 58
2017-07-23 05:00:00 18 3 Sur 10 Sudeste 0 -- -- 57
2017-07-23 04:00:00 18.4 3 Sur 8 Sudeste 0 -- -- 53
2017-07-23 03:00:00 20 4 Este 7 Sudoeste 0 -- -- 49
2017-07-23 02:00:00 22.1 2 Sudoeste 11 Oeste 0 -- -- 44
2017-07-23 01:00:00 23.4 6 Oeste 17 Oeste 0 -- -- 45
2017-07-23 00:00:00 24.8 10 Sudoeste 19 Oeste 0 -- -- 43
2017-07-22 23:00:00 25.4 6 Sudoeste 14 Sudoeste 0 -- -- 37
2017-07-22 22:00:00 28.1 0 Calma 13 Oeste 0 -- -- 29
2017-07-22 21:00:00 32.2 10 Oeste 17 Oeste 0 -- -- 25
2017-07-22 20:00:00 33.9 11 Oeste 18 Oeste 0 -- -- 21
2017-07-22 19:00:00 34.3 13 Oeste 18 Oeste 0 -- -- 18
2017-07-22 18:00:00 34.7 9 Oeste 18 Noroeste 0 -- -- 16
2017-07-22 17:00:00 34.2 9 Oeste 17 Oeste 0 -- -- 20
2017-07-22 16:00:00 33.1 9 Noroeste 17 Oeste 0 -- -- 21
2017-07-22 15:00:00 31.5 6 Noroeste 16 Sudoeste 0 -- -- 26
2017-07-22 14:00:00 29.7 6 Noroeste 11 Oeste 0 -- -- 29
2017-07-22 13:00:00 28 6 Oeste 12 Sudoeste 0 -- -- 32
2017-07-22 12:00:00 25.8 5 Noroeste 10 Oeste 0 -- -- 42
2017-07-22 11:00:00 23.9 6 Noroeste 10 Noroeste 0 -- -- 51
2017-07-22 10:00:00 22 5 Noroeste 8 Noroeste 0 -- -- 55
2017-07-22 09:00:00 21 2 Nordeste 9 Este 0 -- -- 60
2017-07-22 08:00:00 16.2 5 Este 10 Este 0 -- -- 78
2017-07-22 07:00:00 14 2 Este 9 Este 0 -- -- 83
2017-07-22 06:00:00 13.9 5 Este 8 Este 0 -- -- 84
2017-07-22 05:00:00 14.3 5 Sudeste 9 Sudeste 0 -- -- 82
2017-07-22 04:00:00 14.4 3 Sur 5 Sudeste 0 -- -- 76
2017-07-22 03:00:00 15.8 0 Calma 6 Sudeste 0 -- -- 71
2017-07-22 02:00:00 17.8 0 Calma 7 Oeste 0 -- -- 66
2017-07-22 01:00:00 18.9 5 Sudoeste 13 Sudoeste 0 -- -- 60
2017-07-22 00:00:00 19.9 6 Oeste 12 Sudoeste 0 -- -- 50
2017-07-21 23:00:00 21.4 8 Sudoeste 12 Oeste 0 -- -- 42
2017-07-21 22:00:00 23.9 7 Sudoeste 17 Sudoeste 0 -- -- 33
2017-07-21 21:00:00 26.9 13 Sudoeste 26 Sudoeste 0 -- -- 29
2017-07-21 20:00:00 28.4 18 Sudoeste 31 Sudoeste 0 -- -- 26
2017-07-21 19:00:00 29.8 19 Oeste 33 Oeste 0 -- -- 23
2017-07-21 18:00:00 30.3 20 Oeste 32 Oeste 0 -- -- 24
2017-07-21 17:00:00 30.6 18 Oeste 32 Sudoeste 0 -- -- 28
2017-07-21 16:00:00 29.7 19 Oeste 30 Sudoeste 0 -- -- 31
2017-07-21 15:00:00 29.2 15 Oeste 36 Oeste 0 -- -- 32
2017-07-21 14:00:00 27.9 18 Oeste 35 Sudoeste 0 -- -- 37
2017-07-21 13:00:00 26.9 14 Oeste 25 Oeste 0 -- -- 43
2017-07-21 12:00:00 24.9 7 Oeste 15 Oeste 0 -- -- 52
2017-07-21 11:00:00 23 8 Oeste 15 Oeste 0 -- -- 58
2017-07-21 10:00:00 21.2 8 Oeste 15 Sudoeste 0 -- -- 65
2017-07-21 09:00:00 19.9 4 Sudoeste 8 Oeste 0 -- -- 69
2017-07-21 08:00:00 16.7 3 Sudeste 7 Este 0 -- -- 73
2017-07-21 07:00:00 15.4 5 Este 6 Este 0 -- -- 76
2017-07-21 06:00:00 16.4 0 Calma 4 Noroeste 0 -- -- 75
2017-07-21 05:00:00 16.3 0 Calma 8 Este 0 -- -- 73
2017-07-21 04:00:00 16.6 0 Calma 8 Sudeste 0 -- -- 72
2017-07-21 03:00:00 17.9 3 Sudeste 8 Sudoeste 0 -- -- 70
2017-07-21 02:00:00 19 6 Sudoeste 14 Oeste 0 -- -- 67
2017-07-21 01:00:00 20.3 8 Oeste 16 Oeste 0 -- -- 60
2017-07-21 00:00:00 21.5 8 Oeste 22 Sudoeste 0 -- -- 55
2017-07-20 23:00:00 23.3 17 Oeste 30 Oeste 0 -- -- 48
2017-07-20 22:00:00 25.2 13 Sudoeste 27 Oeste 0 -- -- 35
2017-07-20 21:00:00 27.9 17 Sudoeste 33 Sudoeste 0 -- -- 29
2017-07-20 20:00:00 29.6 21 Oeste 35 Oeste 0 -- -- 33
2017-07-20 19:00:00 31.6 19 Oeste 28 Oeste 0 -- -- 28
2017-07-20 18:00:00 32.5 14 Oeste 29 Oeste 0 -- -- 29
2017-07-20 17:00:00 32.8 15 Oeste 30 Oeste 0 -- -- 31
2017-07-20 16:00:00 31.7 16 Oeste 28 Oeste 0 -- -- 33
2017-07-20 15:00:00 31.1 12 Oeste 28 Oeste 0 -- -- 37
2017-07-20 14:00:00 30.2 11 Oeste 21 Oeste 0 -- -- 38
2017-07-20 13:00:00 28.8 9 Oeste 17 Oeste 0 -- -- 45
2017-07-20 12:00:00 26.7 7 Oeste 15 Oeste 0 -- -- 52
2017-07-20 11:00:00 25.1 6 Oeste 10 Oeste 0 -- -- 57
2017-07-20 10:00:00 23.2 5 Oeste 11 Oeste 0 -- -- 65
2017-07-20 09:00:00 21.6 6 Oeste 10 Oeste 0 -- -- 74
2017-07-20 08:00:00 20 0 Calma 5 Sudoeste 0 -- -- 74
2017-07-20 07:00:00 18.2 3 Sur 4 Sur 0 -- -- 77
2017-07-20 06:00:00 19.1 2 Sur 6 Oeste 0 -- -- 75
2017-07-20 05:00:00 19.8 2 Sudoeste 5 Sudoeste 0 -- -- 73
2017-07-20 04:00:00 20.5 2 Sur 7 Sudoeste 0 -- -- 70
2017-07-20 03:00:00 21.5 4 Sudeste 9 Oeste 0 -- -- 64
2017-07-20 02:00:00 22.2 9 Sudoeste 18 Oeste 0 -- -- 61
2017-07-20 01:00:00 22.9 10 Sudoeste 17 Sudoeste 0 -- -- 58
2017-07-20 00:00:00 24.2 12 Sudoeste 23 Sudoeste 0 -- -- 52
2017-07-19 23:00:00 25.8 8 Sudoeste 33 Oeste 0 -- -- 46
2017-07-19 22:00:00 27.9 20 Oeste 32 Oeste 0 -- -- 41
2017-07-19 21:00:00 30.6 23 Oeste 32 Oeste 0 -- -- 35
2017-07-19 20:00:00 32.3 21 Oeste 31 Oeste 0 -- -- 30
2017-07-19 19:00:00 33.6 18 Oeste 34 Oeste 0 -- -- 27
2017-07-19 18:00:00 33.9 19 Oeste 30 Oeste 0 -- -- 27
2017-07-19 17:00:00 33.8 19 Oeste 33 Oeste 0 -- -- 30
2017-07-19 16:00:00 33.5 16 Oeste 30 Oeste 0 -- -- 33
2017-07-19 15:00:00 32.1 15 Oeste 31 Oeste 0 -- -- 40
2017-07-19 14:00:00 30.7 14 Oeste 27 Oeste 0 -- -- 44
2017-07-19 13:00:00 29.7 15 Oeste 27 Oeste 0 -- -- 48
2017-07-19 12:00:00 28.1 12 Oeste 26 Oeste 0 -- -- 54
2017-07-19 11:00:00 26.3 14 Oeste 22 Sudoeste 0 -- -- 62
2017-07-19 10:00:00 24.9 10 Oeste 19 Oeste 0 -- -- 67
2017-07-19 09:00:00 23.5 9 Oeste 15 Oeste 0 -- -- 70
2017-07-19 08:00:00 21.8 2 Nordeste 5 Sudoeste 0 -- -- 71
2017-07-19 07:00:00 21.9 3 Sur 14 Sudoeste 0 -- -- 68
2017-07-19 06:00:00 23 4 Oeste 15 Sudoeste 0 -- -- 65
2017-07-19 05:00:00 23.6 6 Sudoeste 18 Sudoeste 0 -- -- 62
2017-07-19 04:00:00 24.1 10 Sudoeste 22 Sudoeste 0 -- -- 61
2017-07-19 03:00:00 24.7 11 Sudoeste 23 Sudoeste 0 -- -- 57
2017-07-19 02:00:00 25.7 14 Sudoeste 25 Sudoeste 0 -- -- 51
2017-07-19 01:00:00 27 17 Sudoeste 25 Sudoeste 0 -- -- 49
2017-07-19 00:00:00 28.1 10 Sudoeste 26 Sudoeste 0 -- -- 46